createdAt,value
2018-06-12T00:01:54.859Z,59.62
2018-06-12T00:04:24.342Z,58.58
2018-06-12T00:06:53.844Z,59.57
2018-06-12T00:09:23.448Z,59.23
2018-06-12T00:11:52.950Z,60.10
2018-06-12T00:14:22.421Z,58.88
2018-06-12T00:16:51.885Z,58.02
2018-06-12T00:19:21.567Z,59.67
2018-06-12T00:21:51.108Z,60.13
2018-06-12T00:24:20.583Z,59.86
2018-06-12T00:26:50.042Z,60.04
2018-06-12T00:29:19.654Z,60.14
2018-06-12T00:31:49.110Z,59.12
2018-06-12T00:34:18.564Z,59.89
2018-06-12T00:36:48.172Z,60.07
2018-06-12T00:39:18.322Z,60.23
2018-06-12T00:41:47.772Z,60.54
2018-06-12T00:44:17.217Z,61.34
2018-06-12T00:46:46.772Z,60.26
2018-06-12T00:49:16.292Z,60.30
2018-06-12T00:51:45.782Z,60.27
2018-06-12T00:54:15.418Z,60.40
2018-06-12T00:57:01.881Z,60.89
2018-06-12T00:59:31.485Z,61.65
2018-06-12T01:02:01.014Z,60.02
2018-06-12T01:04:30.473Z,60.91
2018-06-12T01:06:59.959Z,61.14
2018-06-12T01:09:29.421Z,61.23
2018-06-12T01:11:58.869Z,61.99
2018-06-12T01:14:28.305Z,61.15
2018-06-12T01:16:57.807Z,61.41
2018-06-12T01:19:27.359Z,61.36
2018-06-12T01:21:56.786Z,62.23
2018-06-12T01:24:26.205Z,61.41
2018-06-12T01:26:55.712Z,61.55
2018-06-12T01:29:25.333Z,61.86
2018-06-12T01:31:54.793Z,61.17
2018-06-12T01:34:24.239Z,61.74
2018-06-12T01:36:54.345Z,61.22
2018-06-12T01:39:23.918Z,61.95
2018-06-12T01:41:53.351Z,62.81
2018-06-12T01:44:22.797Z,62.55
2018-06-12T01:46:52.323Z,62.38
2018-06-12T01:49:21.728Z,62.62
2018-06-12T01:51:51.156Z,62.68
2018-06-12T01:54:20.805Z,63.30
2018-06-12T01:56:50.355Z,62.73
2018-06-12T01:59:19.762Z,62.60
2018-06-12T02:01:48.917Z,62.69
2018-06-12T02:04:19.067Z,62.93
2018-06-12T02:06:48.478Z,62.92
2018-06-12T02:15:23.601Z,62.84
2018-06-12T02:17:52.996Z,63.19
2018-06-12T02:20:22.409Z,63.44
2018-06-12T02:22:51.942Z,62.78
2018-06-12T02:25:21.376Z,63.50
2018-06-12T02:27:50.787Z,63.70
2018-06-12T02:30:20.316Z,62.97
2018-06-12T02:32:49.941Z,63.07
2018-06-12T02:35:19.356Z,63.76
2018-06-12T02:37:48.768Z,62.91
2018-06-12T02:40:18.274Z,63.16
2018-06-12T02:42:47.895Z,62.28
2018-06-12T02:45:17.348Z,63.02
2018-06-12T02:47:46.770Z,63.06
2018-06-12T02:50:16.951Z,63.50
2018-06-12T02:52:46.547Z,63.27
2018-06-12T02:55:15.954Z,63.66
2018-06-12T02:57:45.407Z,63.63
2018-06-12T03:00:14.963Z,63.61
2018-06-12T03:02:44.412Z,62.90
2018-06-12T03:05:13.836Z,63.11
2018-06-12T03:07:43.287Z,63.13
2018-06-12T03:10:12.851Z,63.45
2018-06-12T03:12:42.253Z,63.18
2018-06-12T03:15:11.685Z,62.91
2018-06-12T03:17:41.235Z,62.86
2018-06-12T03:20:10.997Z,62.42
2018-06-12T03:22:40.405Z,62.57
2018-06-12T03:25:09.842Z,62.51
2018-06-12T03:27:39.291Z,62.84
2018-06-12T03:30:08.700Z,63.71
2018-06-12T03:32:38.147Z,62.88
2018-06-12T03:35:07.611Z,63.15
2018-06-12T03:37:37.174Z,63.05
2018-06-12T03:40:06.584Z,62.55
2018-06-12T03:42:36.015Z,63.00
2018-06-12T03:45:05.948Z,62.91
2018-06-12T03:47:35.344Z,62.98
2018-06-12T03:50:04.801Z,62.27
2018-06-12T03:52:34.203Z,62.28
2018-06-12T03:55:03.695Z,62.23
2018-06-12T03:57:33.127Z,63.36
2018-06-12T04:00:02.541Z,62.71
2018-06-12T04:02:32.046Z,62.94
2018-06-12T04:05:01.599Z,61.88
2018-06-12T04:07:31.021Z,62.05
2018-06-12T04:10:00.461Z,62.08
2018-06-12T04:12:29.989Z,62.67
2018-06-12T04:14:59.549Z,61.70
2018-06-12T04:17:28.972Z,62.19
2018-06-12T04:19:58.387Z,61.94
2018-06-12T04:22:27.913Z,61.93
2018-06-12T04:24:57.474Z,61.80
2018-06-12T04:27:26.871Z,61.65
2018-06-12T04:29:56.390Z,61.85
2018-06-12T04:32:25.870Z,61.13
2018-06-12T04:34:55.266Z,61.17
2018-06-12T04:37:24.691Z,60.84
2018-06-12T04:39:54.180Z,61.84
2018-06-12T04:42:23.836Z,61.27
2018-06-12T04:44:53.272Z,60.81
2018-06-12T04:47:23.258Z,60.48
2018-06-12T04:49:52.906Z,60.83
2018-06-12T04:52:22.439Z,59.54
2018-06-12T04:54:52.048Z,60.22
2018-06-12T04:57:21.497Z,59.66
2018-06-12T04:59:51.096Z,59.47
2018-06-12T05:02:20.607Z,59.80
2018-06-12T05:04:50.019Z,59.25
2018-06-12T05:07:19.586Z,59.18
2018-06-12T05:09:49.160Z,59.39
2018-06-12T05:12:18.607Z,58.70
2018-06-12T05:14:48.086Z,59.43
2018-06-12T05:17:17.713Z,59.30
2018-06-12T05:19:47.190Z,60.42
2018-06-12T05:22:16.679Z,59.67
2018-06-12T05:24:46.098Z,59.70
2018-06-12T05:27:15.581Z,59.05
2018-06-12T05:29:45.094Z,59.05
2018-06-12T05:32:14.496Z,58.27
2018-06-12T05:34:43.947Z,58.59
2018-06-12T05:37:13.518Z,56.48
2018-06-12T05:39:43.200Z,56.64
2018-06-12T05:42:12.760Z,56.56
2018-06-12T05:44:42.216Z,56.97
2018-06-12T05:47:11.718Z,56.34
2018-06-12T05:49:41.126Z,55.85
2018-06-12T05:52:10.558Z,56.08
2018-06-12T05:54:40.134Z,56.00
2018-06-12T05:57:09.788Z,56.44
2018-06-12T05:59:39.269Z,55.65
2018-06-12T06:02:08.809Z,56.99
2018-06-12T06:04:38.391Z,55.96
2018-06-12T06:07:08.064Z,55.21
2018-06-12T06:09:37.472Z,54.93
2018-06-12T06:12:06.611Z,55.08
2018-06-12T06:14:36.164Z,54.19
2018-06-12T06:17:05.569Z,55.19
2018-06-12T06:19:34.994Z,55.46
2018-06-12T06:22:04.573Z,54.08
2018-06-12T06:24:34.149Z,53.59
2018-06-12T06:27:03.591Z,53.83
2018-06-12T06:29:33.052Z,53.88
2018-06-12T06:32:02.504Z,52.85
2018-06-12T06:34:31.949Z,52.66
2018-06-12T06:37:01.364Z,53.24
2018-06-12T06:39:30.828Z,52.77
2018-06-12T06:42:00.443Z,53.30
2018-06-12T06:44:29.913Z,52.23
2018-06-12T06:46:59.408Z,51.51
2018-06-12T06:49:28.868Z,51.49
2018-06-12T06:51:58.355Z,51.32
2018-06-12T06:54:27.811Z,51.48
2018-06-12T06:56:57.257Z,51.62
2018-06-12T06:59:26.798Z,53.31
2018-06-12T07:01:56.202Z,52.69
2018-06-12T07:04:25.588Z,51.63
2018-06-12T07:06:55.086Z,51.19
2018-06-12T07:09:24.656Z,51.72
2018-06-12T07:11:54.107Z,51.23
2018-06-12T07:14:23.571Z,52.47
2018-06-12T07:16:53.040Z,50.04
2018-06-12T07:19:22.680Z,50.79
2018-06-12T07:21:52.181Z,49.32
2018-06-12T07:24:21.312Z,50.21
2018-06-12T07:26:50.886Z,49.52
2018-06-12T07:29:20.361Z,47.46
2018-06-12T07:31:49.767Z,47.25
2018-06-12T07:34:19.374Z,47.13
2018-06-12T07:36:48.803Z,47.85
2018-06-12T07:39:18.250Z,47.34
2018-06-12T07:41:47.713Z,46.03
2018-06-12T07:44:17.219Z,46.75
2018-06-12T07:46:46.688Z,45.27
2018-06-12T07:49:16.149Z,45.41
2018-06-12T07:51:45.603Z,45.83
2018-06-12T07:54:15.147Z,45.96
2018-06-12T07:56:44.327Z,46.86
2018-06-12T07:59:13.809Z,45.45
2018-06-12T08:01:43.293Z,45.70
2018-06-12T08:04:12.816Z,44.90
2018-06-12T08:06:42.275Z,45.66
2018-06-12T08:09:11.713Z,45.54
2018-06-12T08:11:41.209Z,43.90
2018-06-12T08:14:10.653Z,44.67
2018-06-12T08:16:40.113Z,44.00
2018-06-12T08:19:09.617Z,44.71
2018-06-12T08:21:39.132Z,42.96
2018-06-12T08:24:08.670Z,42.79
2018-06-12T08:26:38.101Z,42.03
2018-06-12T08:29:07.700Z,42.55
2018-06-12T08:31:37.211Z,41.87
2018-06-12T08:34:06.631Z,41.82
2018-06-12T08:36:36.093Z,42.40
2018-06-12T08:39:08.163Z,41.60
2018-06-12T08:41:37.721Z,40.75
2018-06-12T08:44:07.311Z,38.68
2018-06-12T08:46:36.746Z,40.98
2018-06-12T08:49:06.428Z,40.46
2018-06-12T08:51:36.004Z,40.01
2018-06-12T08:54:05.590Z,41.22
2018-06-12T08:56:35.021Z,40.40
2018-06-12T08:59:04.459Z,40.80
2018-06-12T09:01:34.009Z,40.18
2018-06-12T09:04:03.499Z,38.80
2018-06-12T09:06:32.955Z,40.01
2018-06-12T09:09:02.510Z,40.08
2018-06-12T09:11:31.969Z,39.91
2018-06-12T09:14:01.395Z,41.19
2018-06-12T09:16:30.845Z,39.19
2018-06-12T09:19:00.390Z,40.43
2018-06-12T09:21:29.930Z,39.68
2018-06-12T09:23:59.352Z,40.49
2018-06-12T09:26:28.807Z,38.84
2018-06-12T09:28:58.400Z,37.46
2018-06-12T09:31:27.829Z,37.69
2018-06-12T09:33:57.282Z,38.12
2018-06-12T09:36:32.103Z,35.89
2018-06-12T09:39:01.656Z,36.84
2018-06-12T09:41:31.065Z,36.85
2018-06-12T09:44:00.520Z,37.02
2018-06-12T09:46:29.974Z,37.58
2018-06-12T09:48:59.373Z,35.83
2018-06-12T09:51:28.880Z,37.90
2018-06-12T09:53:58.404Z,35.04
2018-06-12T09:56:27.839Z,38.78
2018-06-12T09:58:57.262Z,37.57
2018-06-12T10:01:26.815Z,38.08
2018-06-12T10:03:56.338Z,38.40
2018-06-12T10:06:25.776Z,37.46
2018-06-12T10:08:55.230Z,38.54
2018-06-12T10:11:24.776Z,35.55
2018-06-12T10:13:54.636Z,37.50
2018-06-12T10:16:24.192Z,37.17
2018-06-12T10:18:53.649Z,36.70
2018-06-12T10:21:23.136Z,34.35
2018-06-12T10:23:52.686Z,35.65
2018-06-12T10:26:22.212Z,36.44
2018-06-12T10:28:51.752Z,35.08
2018-06-12T10:31:21.236Z,34.69
2018-06-12T10:33:50.741Z,35.42
2018-06-12T10:36:20.261Z,31.36
2018-06-12T10:38:49.824Z,32.87
2018-06-12T10:41:18.983Z,31.39
2018-06-12T10:43:48.455Z,30.67
2018-06-12T10:46:17.962Z,32.22
2018-06-12T10:48:47.539Z,31.66
2018-06-12T10:51:17.908Z,32.95
2018-06-12T10:53:47.361Z,32.29
2018-06-12T10:56:16.799Z,33.74
2018-06-12T10:58:46.254Z,33.59
2018-06-12T11:01:15.747Z,33.44
2018-06-12T11:03:45.227Z,33.81
2018-06-12T11:06:14.783Z,35.55
2018-06-12T11:08:44.226Z,36.98
2018-06-12T11:11:13.730Z,35.59
2018-06-12T11:13:44.194Z,36.27
2018-06-12T11:16:13.794Z,35.85
2018-06-12T11:18:43.359Z,35.83
2018-06-12T11:21:12.916Z,37.95
2018-06-12T11:23:42.410Z,36.53
2018-06-12T11:26:12.378Z,38.54
2018-06-12T11:28:41.876Z,37.67
2018-06-12T11:31:12.957Z,37.47
2018-06-12T11:33:42.636Z,37.82
2018-06-12T11:36:12.693Z,37.08
2018-06-12T11:38:42.755Z,40.41
2018-06-12T11:41:12.278Z,38.06
2018-06-12T11:43:41.793Z,40.45
2018-06-12T11:46:11.209Z,40.28
2018-06-12T11:48:40.761Z,40.19
2018-06-12T11:51:10.911Z,40.89
2018-06-12T11:53:40.150Z,41.35
2018-06-12T11:56:09.638Z,41.91
2018-06-12T11:58:39.242Z,42.46
2018-06-12T12:01:08.695Z,41.95
2018-06-12T12:03:38.200Z,46.28
2018-06-12T12:06:07.664Z,45.56
2018-06-12T12:08:37.288Z,48.10
2018-06-12T12:11:07.104Z,48.79
2018-06-12T12:13:36.592Z,50.31
2018-06-12T12:16:06.054Z,50.13
2018-06-12T12:18:35.505Z,52.76
2018-06-12T12:21:04.964Z,54.22
2018-06-12T12:23:35.154Z,57.47
2018-06-12T12:26:04.556Z,56.21
2018-06-12T12:28:34.117Z,56.84
2018-06-12T12:31:03.647Z,57.00
2018-06-12T12:33:33.054Z,57.03
2018-06-12T12:36:02.573Z,56.42
2018-06-12T12:38:32.832Z,56.44
2018-06-12T12:41:02.404Z,54.85
2018-06-12T12:43:31.855Z,54.29
2018-06-12T12:46:01.452Z,54.12
2018-06-12T12:48:31.434Z,54.18
2018-06-12T12:51:00.942Z,57.76
2018-06-12T12:53:30.341Z,55.20
2018-06-12T12:55:59.887Z,56.56
2018-06-12T12:58:29.449Z,57.03
2018-06-12T13:00:58.863Z,57.12
2018-06-12T13:03:28.301Z,56.96
2018-06-12T13:05:57.761Z,56.32
2018-06-12T13:08:27.316Z,58.29
2018-06-12T13:10:56.777Z,57.83
2018-06-12T13:13:26.244Z,58.29
2018-06-12T13:15:56.489Z,57.51
2018-06-12T13:18:26.007Z,57.51
2018-06-12T13:20:55.425Z,55.17
2018-06-12T13:23:24.870Z,57.60
2018-06-12T13:25:54.428Z,56.48
2018-06-12T13:28:23.823Z,56.16
2018-06-12T13:30:53.244Z,55.71
2018-06-12T13:33:22.783Z,56.53
2018-06-12T13:35:52.383Z,58.29
2018-06-12T13:38:21.824Z,57.17
2018-06-12T13:40:51.229Z,55.98
2018-06-12T13:43:20.805Z,55.44
2018-06-12T13:45:50.395Z,56.43
2018-06-12T13:48:19.974Z,56.80
2018-06-12T13:50:50.387Z,55.73
2018-06-12T13:53:19.931Z,56.08
2018-06-12T13:55:49.384Z,54.62
2018-06-12T13:58:18.828Z,56.14
2018-06-12T14:00:48.279Z,55.19
2018-06-12T14:03:17.831Z,55.42
2018-06-12T14:05:47.263Z,57.37
2018-06-12T14:08:16.675Z,58.76
2018-06-12T14:10:46.177Z,58.11
2018-06-12T14:13:15.661Z,58.94
2018-06-12T14:15:46.116Z,58.56
2018-06-12T14:18:15.557Z,58.95
2018-06-12T14:20:45.081Z,61.70
2018-06-12T14:23:14.568Z,60.79
2018-06-12T14:25:44.011Z,60.41
2018-06-12T14:28:13.539Z,61.23
2018-06-12T14:30:43.045Z,59.50
2018-06-12T14:33:12.683Z,57.11
2018-06-12T14:35:42.123Z,55.30
2018-06-12T14:38:11.868Z,54.13
2018-06-12T14:40:41.405Z,48.79
2018-06-12T14:43:10.841Z,47.67
2018-06-12T14:45:40.245Z,45.83
2018-06-12T14:48:09.667Z,44.24
2018-06-12T14:50:39.973Z,44.17
2018-06-12T14:53:09.417Z,44.23
2018-06-12T14:55:38.826Z,41.81
2018-06-12T14:58:08.299Z,37.22
2018-06-12T15:00:37.898Z,34.79
2018-06-12T15:03:07.447Z,34.53
2018-06-12T15:05:36.892Z,35.25
2018-06-12T15:08:06.461Z,33.11
2018-06-12T15:10:36.021Z,35.41
2018-06-12T15:13:05.510Z,34.09
2018-06-12T15:15:34.907Z,31.18
2018-06-12T15:18:04.420Z,29.01
2018-06-12T15:20:33.915Z,27.75
2018-06-12T15:23:03.437Z,28.67
2018-06-12T15:25:32.867Z,30.84
2018-06-12T15:28:02.390Z,31.16
2018-06-12T15:30:31.871Z,31.50
2018-06-12T15:33:01.302Z,33.04
2018-06-12T15:35:30.865Z,34.04
2018-06-12T15:38:00.481Z,33.13
2018-06-12T15:40:32.475Z,33.15
2018-06-12T15:43:02.217Z,36.03
2018-06-12T15:45:32.106Z,37.38
2018-06-12T15:48:01.813Z,37.36
2018-06-12T15:50:31.587Z,39.36
2018-06-12T15:53:01.520Z,37.60
2018-06-12T15:55:31.038Z,40.32
2018-06-12T15:58:00.509Z,42.22
2018-06-12T16:00:29.895Z,43.72
2018-06-12T16:02:59.494Z,43.43
2018-06-12T16:05:28.981Z,42.92
2018-06-12T16:07:58.824Z,43.23
2018-06-12T16:10:28.411Z,43.86
2018-06-12T16:12:58.057Z,42.57
2018-06-12T16:15:27.512Z,43.64
2018-06-12T16:17:56.956Z,43.94
2018-06-12T16:20:26.443Z,44.79
2018-06-12T16:22:55.874Z,45.64
2018-06-12T16:25:25.284Z,44.85
2018-06-12T16:27:54.820Z,45.47
2018-06-12T16:30:24.356Z,45.00
2018-06-12T16:32:53.780Z,45.79
2018-06-12T16:35:23.253Z,43.64
2018-06-12T16:37:52.831Z,46.03
2018-06-12T16:40:22.405Z,47.83
2018-06-12T16:42:51.788Z,45.51
2018-06-12T16:45:21.203Z,45.35
2018-06-12T16:47:50.760Z,45.54
2018-06-12T16:50:20.255Z,44.84
2018-06-12T16:52:49.646Z,47.45
2018-06-12T16:55:19.226Z,48.09
2018-06-12T16:57:49.341Z,49.36
2018-06-12T17:00:18.810Z,47.90
2018-06-12T17:02:48.246Z,47.57
2018-06-12T17:05:17.794Z,48.42
2018-06-12T17:07:46.978Z,47.17
2018-06-12T17:10:16.494Z,48.44
2018-06-12T17:12:45.950Z,48.83
2018-06-12T17:15:15.548Z,48.84
2018-06-12T17:17:45.048Z,48.73
2018-06-12T17:20:14.450Z,49.08
2018-06-12T17:22:43.916Z,46.80
2018-06-12T17:25:13.476Z,48.46
2018-06-12T17:27:42.988Z,50.58
2018-06-12T17:30:12.454Z,50.15
2018-06-12T17:32:42.096Z,50.65
2018-06-12T17:35:11.595Z,50.87
2018-06-12T17:37:41.035Z,50.31
2018-06-12T17:40:10.569Z,49.56
2018-06-12T17:42:40.158Z,50.92
2018-06-12T17:45:09.670Z,50.77
2018-06-12T17:47:39.328Z,51.65
2018-06-12T17:50:08.800Z,52.64
2018-06-12T17:52:38.344Z,52.32
2018-06-12T17:55:07.900Z,51.28
2018-06-12T17:57:37.278Z,50.01
2018-06-12T18:00:06.796Z,48.55
2018-06-12T18:02:36.587Z,50.07
2018-06-12T18:05:06.449Z,50.28
2018-06-12T18:07:35.639Z,50.26
2018-06-12T18:10:05.411Z,48.90
2018-06-12T18:12:34.859Z,50.02
2018-06-12T18:15:05.555Z,50.96
2018-06-12T18:17:35.116Z,51.02
2018-06-12T18:20:04.658Z,48.55
2018-06-12T18:22:34.363Z,51.26
2018-06-12T18:25:04.373Z,49.25
2018-06-12T18:27:33.791Z,50.11
2018-06-12T18:30:03.343Z,51.62
2018-06-12T18:32:33.624Z,50.86
2018-06-12T18:35:03.157Z,49.79
2018-06-12T18:37:32.616Z,50.67
2018-06-12T18:40:02.132Z,51.44
2018-06-12T18:42:31.693Z,50.88
2018-06-12T18:45:01.334Z,50.43
2018-06-12T18:47:30.763Z,50.55
2018-06-12T18:50:00.220Z,51.65
2018-06-12T18:52:29.876Z,52.05
2018-06-12T18:54:59.669Z,51.79
2018-06-12T18:57:29.088Z,52.11
2018-06-12T18:59:58.581Z,52.41
2018-06-12T19:02:28.345Z,53.98
2018-06-12T19:04:57.772Z,53.19
2018-06-12T19:07:27.254Z,53.83
2018-06-12T19:09:56.799Z,53.17
2018-06-12T19:12:26.326Z,54.60
2018-06-12T19:14:55.799Z,53.06
2018-06-12T19:17:25.259Z,54.48
2018-06-12T19:20:02.101Z,54.21
2018-06-12T19:22:31.638Z,54.54
2018-06-12T19:25:01.148Z,53.52
2018-06-12T19:27:30.607Z,54.73
2018-06-12T19:30:00.178Z,54.23
2018-06-12T19:32:29.691Z,53.74
2018-06-12T19:34:59.167Z,54.13
2018-06-12T19:37:28.797Z,54.34
2018-06-12T19:40:02.620Z,54.39
2018-06-12T19:42:32.133Z,55.29
2018-06-12T19:45:01.612Z,55.52
2018-06-12T19:47:31.107Z,55.67
2018-06-12T19:50:00.512Z,56.35
2018-06-12T19:52:30.248Z,54.70
2018-06-12T19:54:59.797Z,55.29
2018-06-12T19:57:29.378Z,56.73
2018-06-12T19:59:58.823Z,56.56
2018-06-12T20:02:28.592Z,55.40
2018-06-12T20:04:58.095Z,56.06
2018-06-12T20:07:27.584Z,55.25
2018-06-12T20:09:57.062Z,55.46
2018-06-12T20:12:26.657Z,56.52
2018-06-12T20:14:56.147Z,55.26
2018-06-12T20:17:25.545Z,56.16
2018-06-12T20:19:55.067Z,56.16
2018-06-12T20:22:24.780Z,56.94
2018-06-12T20:24:54.231Z,56.30
2018-06-12T20:27:23.672Z,55.55
2018-06-12T20:29:53.220Z,56.59
2018-06-12T20:32:23.055Z,57.55
2018-06-12T20:34:52.661Z,57.04
2018-06-12T20:37:22.748Z,56.66
2018-06-12T20:39:52.230Z,55.87
2018-06-12T20:42:21.946Z,55.98
2018-06-12T20:44:51.397Z,55.22
2018-06-12T20:47:21.014Z,56.90
2018-06-12T20:49:50.720Z,56.22
2018-06-12T20:52:20.446Z,55.77
2018-06-12T20:54:49.932Z,56.72
2018-06-12T20:57:19.373Z,57.52
2018-06-12T20:59:48.973Z,57.54
2018-06-12T21:02:18.555Z,58.06
2018-06-12T21:04:47.971Z,56.78
2018-06-12T21:07:17.536Z,57.98
2018-06-12T21:09:46.982Z,58.05
2018-06-12T21:12:16.546Z,58.74
2018-06-12T21:14:45.971Z,58.25
2018-06-12T21:17:15.503Z,58.23
2018-06-12T21:19:45.019Z,58.22
2018-06-12T21:22:14.625Z,58.67
2018-06-12T21:24:44.030Z,58.09
2018-06-12T21:27:13.773Z,59.52
2018-06-12T21:29:43.353Z,60.85
2018-06-12T21:32:12.800Z,59.66
2018-06-12T21:34:42.320Z,60.08
2018-06-12T21:37:11.926Z,61.14
2018-06-12T21:39:41.411Z,61.95
2018-06-12T21:42:10.971Z,62.37
2018-06-12T21:44:40.445Z,60.66
2018-06-12T21:47:09.952Z,62.23
2018-06-12T21:49:39.486Z,61.37
2018-06-12T21:52:08.673Z,62.15
2018-06-12T21:54:38.286Z,63.08
2018-06-12T21:57:07.797Z,62.95
2018-06-12T21:59:37.218Z,63.77
2018-06-12T22:02:07.004Z,64.17
2018-06-12T22:04:36.585Z,64.71
2018-06-12T22:07:06.234Z,65.24
2018-06-12T22:09:35.755Z,65.70
2018-06-12T22:12:05.243Z,65.29
2018-06-12T22:14:34.922Z,65.01
2018-06-12T22:17:19.123Z,65.93
2018-06-12T22:19:48.555Z,65.77
2018-06-12T22:22:18.030Z,66.30
2018-06-12T22:24:48.045Z,66.43
2018-06-12T22:27:17.517Z,66.89
2018-06-12T22:29:46.947Z,67.18
2018-06-12T22:32:16.333Z,67.23
2018-06-12T22:34:45.966Z,67.16
2018-06-12T22:37:15.367Z,68.14
2018-06-12T22:39:44.788Z,67.93
2018-06-12T22:42:14.207Z,68.53
2018-06-12T22:44:43.693Z,67.91
2018-06-12T22:47:13.104Z,68.28
2018-06-12T22:49:42.550Z,68.00
2018-06-12T22:52:12.041Z,67.64
2018-06-12T22:54:41.620Z,67.95
2018-06-12T22:57:11.059Z,68.57
2018-06-12T22:59:40.518Z,68.65
2018-06-12T23:02:10.034Z,69.19
2018-06-12T23:04:39.537Z,69.38
2018-06-12T23:07:08.921Z,69.39
2018-06-12T23:09:38.478Z,69.06
2018-06-12T23:12:07.888Z,68.84
2018-06-12T23:14:37.320Z,69.65
2018-06-12T23:17:06.962Z,69.10
2018-06-12T23:19:53.130Z,69.56
2018-06-12T23:22:22.670Z,69.30
2018-06-12T23:24:52.194Z,69.02
2018-06-12T23:27:21.639Z,69.87
2018-06-12T23:29:51.272Z,69.97
2018-06-12T23:32:20.728Z,69.68
2018-06-12T23:34:50.189Z,70.51
2018-06-12T23:37:19.677Z,70.42
2018-06-12T23:39:49.092Z,70.13
2018-06-12T23:42:18.654Z,70.17
2018-06-12T23:44:48.046Z,69.80
2018-06-12T23:47:17.447Z,70.08
2018-06-12T23:49:47.043Z,70.08
2018-06-12T23:52:16.448Z,69.83
2018-06-12T23:54:45.866Z,69.92
2018-06-12T23:57:15.330Z,70.44
2018-06-12T23:59:44.880Z,69.07
